createdAt,value
2018-12-26T00:01:09.798Z,2.50
2018-12-26T00:03:40.512Z,3.40
2018-12-26T00:06:11.123Z,2.40
2018-12-26T00:08:42.645Z,2.80
2018-12-26T00:11:13.019Z,2.25
2018-12-26T00:13:44.113Z,2.85
2018-12-26T00:16:14.432Z,2.20
2018-12-26T00:18:44.991Z,2.52
2018-12-26T00:21:15.424Z,2.30
2018-12-26T00:23:45.769Z,3.27
2018-12-26T00:26:16.213Z,3.55
2018-12-26T00:28:46.873Z,3.17
2018-12-26T00:31:17.202Z,3.10
2018-12-26T00:33:47.934Z,2.72
2018-12-26T00:36:18.258Z,3.10
2018-12-26T00:38:48.892Z,2.60
2018-12-26T00:41:19.515Z,2.90
2018-12-26T00:43:49.870Z,3.00
2018-12-26T00:46:20.190Z,3.15
2018-12-26T00:48:50.554Z,2.65
2018-12-26T00:51:22.426Z,3.42
2018-12-26T00:54:01.491Z,3.17
2018-12-26T00:56:31.814Z,2.47
2018-12-26T00:59:02.923Z,2.72
2018-12-26T01:01:33.313Z,2.80
2018-12-26T01:04:03.635Z,3.10
2018-12-26T01:06:34.622Z,3.42
2018-12-26T01:09:07.586Z,6.03
2018-12-26T01:11:37.939Z,8.75
2018-12-26T01:14:08.261Z,6.45
2018-12-26T01:16:38.759Z,7.58
2018-12-26T01:19:09.393Z,9.48
2018-12-26T01:21:40.146Z,11.63
2018-12-26T01:24:10.910Z,8.20
2018-12-26T01:26:41.230Z,6.10
2018-12-26T01:29:11.928Z,4.78
2018-12-26T01:31:42.266Z,4.60
2018-12-26T01:34:12.879Z,4.55
2018-12-26T01:36:43.563Z,4.67
2018-12-26T01:39:14.517Z,4.35
2018-12-26T01:41:44.852Z,3.80
2018-12-26T01:44:15.836Z,3.65
2018-12-26T01:46:46.346Z,3.60
2018-12-26T01:49:16.688Z,3.12
2018-12-26T01:51:47.006Z,3.30
2018-12-26T01:54:17.692Z,3.35
2018-12-26T01:56:48.044Z,3.17
2018-12-26T01:59:18.566Z,3.30
2018-12-26T02:01:48.913Z,3.58
2018-12-26T02:04:19.308Z,3.95
2018-12-26T02:06:49.648Z,2.27
2018-12-26T02:09:20.773Z,3.27
2018-12-26T02:11:51.778Z,2.95
2018-12-26T02:14:22.675Z,3.42
2018-12-26T02:16:53.711Z,2.77
2018-12-26T02:19:24.005Z,2.72
2018-12-26T02:21:54.347Z,3.67
2018-12-26T02:24:27.736Z,3.20
2018-12-26T02:26:58.052Z,3.10
2018-12-26T02:29:28.679Z,3.33
2018-12-26T02:31:59.318Z,2.87
2018-12-26T02:34:29.636Z,3.42
2018-12-26T02:37:00.256Z,3.50
2018-12-26T02:39:30.987Z,3.40
2018-12-26T02:42:01.586Z,4.00
2018-12-26T02:44:32.270Z,4.03
2018-12-26T02:47:03.039Z,3.80
2018-12-26T02:49:33.770Z,3.72
2018-12-26T02:52:04.085Z,3.98
2018-12-26T02:54:34.545Z,5.17
2018-12-26T02:57:05.134Z,3.85
2018-12-26T02:59:35.455Z,5.17
2018-12-26T03:02:06.237Z,5.25
2018-12-26T03:04:36.557Z,5.17
2018-12-26T03:07:07.259Z,6.40
2018-12-26T03:09:37.619Z,5.33
2018-12-26T03:12:08.340Z,5.17
2018-12-26T03:14:38.698Z,6.10
2018-12-26T03:17:09.056Z,6.45
2018-12-26T03:19:39.430Z,6.00
2018-12-26T03:22:09.748Z,6.72
2018-12-26T03:24:40.231Z,7.25
2018-12-26T03:27:10.584Z,8.63
2018-12-26T03:29:40.904Z,7.85
2018-12-26T03:32:11.306Z,9.70
2018-12-26T03:34:41.639Z,9.25
2018-12-26T03:37:12.256Z,8.08
2018-12-26T03:39:43.137Z,9.43
2018-12-26T03:42:13.833Z,9.80
2018-12-26T03:44:44.161Z,9.85
2018-12-26T03:47:14.532Z,11.35
2018-12-26T03:49:45.127Z,10.68
2018-12-26T03:52:15.455Z,10.50
2018-12-26T03:54:46.504Z,10.20
2018-12-26T03:57:17.009Z,11.10
2018-12-26T03:59:47.729Z,10.30
2018-12-26T04:02:18.476Z,10.98
2018-12-26T04:04:48.837Z,11.22
2018-12-26T04:07:19.167Z,11.12
2018-12-26T04:09:49.924Z,12.60
2018-12-26T04:12:20.523Z,11.35
2018-12-26T04:14:51.186Z,12.13
2018-12-26T04:17:21.875Z,10.90
2018-12-26T04:19:52.781Z,12.45
2018-12-26T04:22:23.479Z,12.40
2018-12-26T04:24:53.869Z,11.85
2018-12-26T04:27:24.217Z,13.50
2018-12-26T04:29:54.843Z,12.23
2018-12-26T04:32:25.650Z,13.35
2018-12-26T04:34:56.400Z,11.83
2018-12-26T04:37:26.726Z,13.35
2018-12-26T04:39:57.150Z,12.07
2018-12-26T04:42:27.479Z,11.33
2018-12-26T04:44:57.816Z,13.15
2018-12-26T04:47:28.518Z,11.75
2018-12-26T04:49:58.968Z,11.80
2018-12-26T04:52:29.279Z,10.28
2018-12-26T04:54:59.704Z,11.20
2018-12-26T04:57:33.057Z,11.12
2018-12-26T05:00:05.229Z,10.45
2018-12-26T05:02:35.590Z,11.30
2018-12-26T05:05:06.289Z,11.57
2018-12-26T05:07:37.006Z,12.07
2018-12-26T05:10:08.059Z,13.30
2018-12-26T05:12:38.771Z,14.38
2018-12-26T05:15:09.818Z,13.75
2018-12-26T05:17:40.761Z,14.98
2018-12-26T05:20:11.218Z,14.38
2018-12-26T05:22:41.822Z,14.98
2018-12-26T05:25:12.333Z,15.53
2018-12-26T05:27:43.251Z,15.48
2018-12-26T05:30:13.899Z,15.30
2018-12-26T05:32:44.259Z,14.83
2018-12-26T05:35:14.622Z,16.45
2018-12-26T05:37:45.317Z,16.20
2018-12-26T05:40:16.059Z,16.20
2018-12-26T05:42:46.666Z,15.30
2018-12-26T05:45:17.701Z,15.50
2018-12-26T05:47:48.076Z,15.95
2018-12-26T05:50:18.433Z,16.30
2018-12-26T05:52:48.765Z,16.27
2018-12-26T05:55:19.926Z,15.63
2018-12-26T05:57:50.289Z,16.25
2018-12-26T06:00:20.618Z,16.48
2018-12-26T06:02:51.311Z,15.53
2018-12-26T06:05:22.009Z,14.53
2018-12-26T06:07:53.088Z,16.10
2018-12-26T06:10:23.672Z,15.35
2018-12-26T06:12:54.003Z,15.68
2018-12-26T06:15:25.420Z,15.13
2018-12-26T06:17:56.129Z,15.75
2018-12-26T06:20:26.781Z,15.90
2018-12-26T06:22:57.131Z,16.02
2018-12-26T06:25:27.612Z,16.32
2018-12-26T06:27:58.021Z,17.10
2018-12-26T06:30:28.690Z,15.83
2018-12-26T06:32:59.443Z,14.90
2018-12-26T06:35:30.175Z,17.92
2018-12-26T06:38:01.560Z,15.38
2018-12-26T06:40:32.599Z,15.75
2018-12-26T06:43:02.970Z,16.25
2018-12-26T06:45:33.663Z,16.65
2018-12-26T06:48:04.365Z,15.78
2018-12-26T06:50:35.091Z,17.57
2018-12-26T06:53:05.740Z,17.30
2018-12-26T06:55:36.139Z,16.73
2018-12-26T06:58:06.469Z,16.30
2018-12-26T07:00:37.174Z,16.07
2018-12-26T07:03:07.536Z,16.02
2018-12-26T07:05:37.863Z,17.50
2018-12-26T07:08:08.191Z,16.60
2018-12-26T07:10:38.568Z,16.15
2018-12-26T07:13:08.898Z,18.52
2018-12-26T07:15:39.253Z,16.40
2018-12-26T07:18:09.931Z,18.00
2018-12-26T07:20:40.691Z,17.52
2018-12-26T07:23:11.033Z,16.80
2018-12-26T07:25:41.718Z,17.05
2018-12-26T07:28:12.349Z,16.10
2018-12-26T07:30:42.762Z,17.27
2018-12-26T07:33:13.401Z,16.60
2018-12-26T07:35:44.034Z,16.50
2018-12-26T07:38:14.993Z,16.95
2018-12-26T07:40:45.385Z,17.77
2018-12-26T07:43:15.711Z,17.27
2018-12-26T07:45:46.415Z,16.67
2018-12-26T07:48:16.792Z,15.60
2018-12-26T07:50:47.790Z,16.15
2018-12-26T07:53:18.128Z,16.07
2018-12-26T07:55:48.506Z,16.23
2018-12-26T07:58:19.253Z,16.55
2018-12-26T08:00:49.666Z,15.90
2018-12-26T08:03:20.034Z,16.02
2018-12-26T08:05:50.932Z,14.87
2018-12-26T08:08:21.290Z,16.10
2018-12-26T08:10:51.668Z,15.18
2018-12-26T08:13:22.002Z,15.60
2018-12-26T08:15:52.353Z,13.78
2018-12-26T08:18:22.729Z,15.28
2018-12-26T08:20:53.952Z,14.28
2018-12-26T08:23:24.781Z,15.88
2018-12-26T08:25:55.993Z,14.98
2018-12-26T08:28:27.055Z,14.95
2018-12-26T08:30:57.793Z,15.88
2018-12-26T08:33:28.178Z,16.15
2018-12-26T08:35:58.852Z,16.62
2018-12-26T08:38:29.183Z,15.60
2018-12-26T08:40:59.863Z,16.37
2018-12-26T08:43:30.197Z,15.30
2018-12-26T08:46:00.516Z,16.95
2018-12-26T08:48:31.200Z,16.23
2018-12-26T08:51:01.836Z,15.15
2018-12-26T08:53:32.481Z,15.03
2018-12-26T08:56:02.941Z,15.60
2018-12-26T08:58:35.246Z,16.23
2018-12-26T09:01:05.775Z,15.98
2018-12-26T09:03:36.426Z,15.85
2018-12-26T09:06:07.044Z,15.58
2018-12-26T09:08:37.716Z,17.17
2018-12-26T09:11:08.125Z,15.18
2018-12-26T09:13:38.455Z,16.85
2018-12-26T09:16:09.175Z,16.77
2018-12-26T09:18:39.627Z,19.17
2018-12-26T09:21:09.975Z,17.80
2018-12-26T09:23:40.334Z,15.98
2018-12-26T09:26:11.127Z,15.63
2018-12-26T09:28:43.869Z,16.17
2018-12-26T09:31:13.574Z,15.85
2018-12-26T09:33:44.229Z,16.73
2018-12-26T09:36:15.069Z,16.75
2018-12-26T09:38:45.399Z,16.15
2018-12-26T09:41:15.796Z,16.37
2018-12-26T09:43:46.153Z,14.78
2018-12-26T09:46:16.823Z,15.00
2018-12-26T09:48:47.855Z,15.85
2018-12-26T09:51:18.213Z,16.20
2018-12-26T09:53:50.191Z,15.10
2018-12-26T09:56:21.054Z,17.20
2018-12-26T09:58:52.573Z,15.35
2018-12-26T10:01:23.445Z,15.30
2018-12-26T10:03:54.178Z,15.45
2018-12-26T10:06:24.785Z,15.53
2018-12-26T10:08:55.480Z,14.65
2018-12-26T10:11:26.211Z,14.55
2018-12-26T10:13:57.157Z,14.38
2018-12-26T10:16:27.895Z,13.72
2018-12-26T10:18:58.299Z,14.47
2018-12-26T10:21:28.657Z,13.40
2018-12-26T10:23:59.007Z,12.40
2018-12-26T10:26:29.715Z,12.45
2018-12-26T10:29:00.999Z,11.97
2018-12-26T10:31:31.957Z,10.45
2018-12-26T10:34:02.305Z,11.20
2018-12-26T10:36:32.657Z,11.63
2018-12-26T10:39:03.932Z,9.65
2018-12-26T10:41:34.314Z,10.63
2018-12-26T10:44:04.651Z,10.65
2018-12-26T10:46:34.997Z,9.90
2018-12-26T10:49:05.727Z,10.40
2018-12-26T10:52:46.516Z,11.10
2018-12-26T10:55:16.933Z,9.88
2018-12-26T10:57:47.569Z,10.25
2018-12-26T11:00:17.899Z,10.65
2018-12-26T11:02:48.671Z,9.68
2018-12-26T11:05:18.995Z,9.98
2018-12-26T11:07:49.691Z,10.60
2018-12-26T11:10:20.335Z,10.63
2018-12-26T11:12:50.685Z,11.30
2018-12-26T11:15:21.379Z,10.63
2018-12-26T11:17:52.254Z,11.88
2018-12-26T11:20:22.618Z,11.70
2018-12-26T11:22:53.274Z,10.98
2018-12-26T11:25:24.437Z,10.85
2018-12-26T11:27:54.763Z,10.93
2018-12-26T11:30:25.109Z,11.78
2018-12-26T11:32:55.513Z,12.15
2018-12-26T11:35:26.547Z,10.75
2018-12-26T11:37:56.905Z,12.75
2018-12-26T11:40:27.730Z,16.50
2018-12-26T11:42:58.060Z,12.00
2018-12-26T11:45:28.457Z,10.90
2018-12-26T11:47:59.147Z,13.15
2018-12-26T11:50:29.756Z,10.80
2018-12-26T11:53:00.515Z,12.45
2018-12-26T11:55:31.216Z,14.15
2018-12-26T11:58:01.571Z,10.75
2018-12-26T12:00:32.456Z,10.90
2018-12-26T12:03:03.237Z,11.33
2018-12-26T12:05:33.617Z,11.90
2018-12-26T12:08:03.974Z,11.45
2018-12-26T12:10:34.331Z,11.20
2018-12-26T12:13:04.663Z,11.75
2018-12-26T12:15:35.050Z,10.60
2018-12-26T12:18:05.429Z,10.48
2018-12-26T12:20:36.061Z,10.15
2018-12-26T12:23:06.787Z,12.55
2018-12-26T12:25:37.527Z,10.25
2018-12-26T12:28:07.867Z,11.68
2018-12-26T12:30:38.197Z,10.60
2018-12-26T12:33:08.885Z,10.50
2018-12-26T12:35:39.628Z,11.40
2018-12-26T12:38:10.544Z,10.40
2018-12-26T12:40:41.005Z,11.57
2018-12-26T12:43:12.339Z,12.35
2018-12-26T12:45:43.067Z,10.70
2018-12-26T12:48:13.472Z,12.13
2018-12-26T12:50:44.123Z,12.18
2018-12-26T12:53:14.457Z,10.75
2018-12-26T12:55:45.681Z,11.18
2018-12-26T12:58:16.641Z,11.55
2018-12-26T13:00:47.299Z,13.68
2018-12-26T13:03:17.668Z,13.43
2018-12-26T13:05:48.002Z,12.05
2018-12-26T13:08:18.719Z,13.80
2018-12-26T13:10:49.414Z,15.10
2018-12-26T13:13:20.134Z,12.55
2018-12-26T13:15:50.494Z,24.15
2018-12-26T13:18:21.357Z,15.10
2018-12-26T13:20:51.770Z,29.85
2018-12-26T13:23:22.125Z,13.72
2018-12-26T13:25:52.529Z,15.75
2018-12-26T13:28:23.230Z,12.20
2018-12-26T13:30:53.581Z,12.63
2018-12-26T13:33:25.637Z,14.43
2018-12-26T13:35:55.970Z,15.55
2018-12-26T13:38:26.325Z,15.83
2018-12-26T13:40:57.326Z,14.40
2018-12-26T13:43:27.679Z,16.05
2018-12-26T13:45:58.034Z,16.52
2018-12-26T13:48:28.849Z,16.85
2018-12-26T13:50:59.182Z,15.80
2018-12-26T13:53:29.656Z,16.97
2018-12-26T13:56:00.445Z,14.55
2018-12-26T13:58:31.148Z,17.50
2018-12-26T14:01:03.021Z,15.35
2018-12-26T14:03:33.691Z,16.20
2018-12-26T14:06:04.576Z,18.12
2018-12-26T14:08:34.908Z,19.07
2018-12-26T14:11:05.364Z,16.57
2018-12-26T14:13:36.062Z,16.67
2018-12-26T14:16:06.698Z,19.75
2018-12-26T14:18:37.536Z,16.15
2018-12-26T14:21:07.867Z,16.37
2018-12-26T14:23:38.197Z,14.85
2018-12-26T14:26:08.975Z,15.68
2018-12-26T14:28:39.330Z,16.05
2018-12-26T14:31:09.660Z,16.48
2018-12-26T14:33:40.394Z,15.48
2018-12-26T14:36:10.752Z,16.75
2018-12-26T14:38:41.800Z,17.62
2018-12-26T14:41:12.178Z,20.25
2018-12-26T14:43:42.533Z,16.23
2018-12-26T14:46:13.196Z,17.45
2018-12-26T14:48:43.630Z,17.23
2018-12-26T14:51:13.991Z,15.93
2018-12-26T14:53:44.683Z,17.15
2018-12-26T14:56:15.017Z,18.50
2018-12-26T14:58:45.375Z,17.82
2018-12-26T15:01:15.725Z,16.42
2018-12-26T15:03:46.478Z,21.57
2018-12-26T15:06:17.192Z,16.85
2018-12-26T15:08:47.728Z,16.55
2018-12-26T15:11:18.113Z,17.95
2018-12-26T15:14:08.180Z,16.85
2018-12-26T15:16:51.825Z,15.72
2018-12-26T15:19:41.577Z,15.75
2018-12-26T15:22:26.854Z,17.50
2018-12-26T15:25:16.960Z,18.87
2018-12-26T15:28:00.115Z,15.93
2018-12-26T15:30:50.194Z,16.15
2018-12-26T15:33:33.111Z,20.65
2018-12-26T15:36:23.207Z,18.77
2018-12-26T15:39:07.800Z,17.50
2018-12-26T15:41:57.827Z,16.73
2018-12-26T15:44:42.635Z,18.20
2018-12-26T15:47:32.722Z,16.52
2018-12-26T15:50:17.462Z,16.93
2018-12-26T15:57:07.272Z,14.95
2018-12-26T15:59:57.418Z,15.10
2018-12-26T16:02:40.434Z,15.80
2018-12-26T16:05:30.192Z,15.43
2018-12-26T16:08:14.532Z,16.57
2018-12-26T16:11:04.989Z,14.83
2018-12-26T16:13:47.528Z,15.58
2018-12-26T16:16:37.653Z,14.38
2018-12-26T16:19:22.075Z,13.28
2018-12-26T16:22:11.836Z,14.47
2018-12-26T16:24:54.234Z,15.10
2018-12-26T16:27:44.256Z,13.08
2018-12-26T16:30:25.147Z,13.75
2018-12-26T16:36:16.602Z,13.20
2018-12-26T16:38:46.969Z,12.60
2018-12-26T16:41:36.749Z,13.32
2018-12-26T16:44:19.769Z,13.28
2018-12-26T16:47:02.960Z,14.58
2018-12-26T16:49:52.894Z,15.08
2018-12-26T16:52:35.736Z,14.15
2018-12-26T16:58:52.790Z,13.28
2018-12-26T17:01:42.560Z,14.33
2018-12-26T17:04:25.099Z,15.58
2018-12-26T17:07:14.855Z,14.70
2018-12-26T17:09:58.363Z,15.72
2018-12-26T17:12:48.119Z,16.93
2018-12-26T17:15:32.663Z,16.55
2018-12-26T17:18:22.442Z,15.70
2018-12-26T17:21:05.238Z,18.35
2018-12-26T17:26:56.551Z,16.52
2018-12-26T17:29:46.337Z,17.80
2018-12-26T17:32:28.712Z,16.15
2018-12-26T17:35:18.815Z,16.95
2018-12-26T17:38:01.697Z,16.70
2018-12-26T17:40:51.459Z,16.40
2018-12-26T17:43:36.080Z,16.50
2018-12-26T17:46:18.767Z,17.00
2018-12-26T17:49:08.615Z,17.62
2018-12-26T17:51:53.144Z,15.72
2018-12-26T17:55:04.263Z,22.73
2018-12-26T17:57:47.335Z,17.00
2018-12-26T18:04:06.247Z,16.67
2018-12-26T18:06:56.307Z,16.75
2018-12-26T18:09:38.973Z,17.50
2018-12-26T18:12:28.995Z,16.50
2018-12-26T18:15:09.967Z,19.07
2018-12-26T18:21:01.650Z,17.00
2018-12-26T18:23:51.434Z,15.83
2018-12-26T18:26:33.722Z,15.43
2018-12-26T18:29:23.838Z,15.55
2018-12-26T18:32:06.306Z,16.62
2018-12-26T18:34:56.342Z,15.40
2018-12-26T18:37:37.326Z,17.50
2018-12-26T18:40:27.116Z,18.10
2018-12-26T18:43:11.342Z,17.62
2018-12-26T18:46:01.127Z,18.65
2018-12-26T18:48:45.140Z,18.15
2018-12-26T18:51:35.274Z,20.30
2018-12-26T18:54:18.358Z,21.25
2018-12-26T18:57:08.597Z,20.72
2018-12-26T18:59:51.277Z,22.77
2018-12-26T19:02:41.321Z,24.12
2018-12-26T19:05:24.104Z,23.02
2018-12-26T19:08:13.902Z,24.32
2018-12-26T19:10:56.933Z,25.20
2018-12-26T19:13:46.718Z,22.37
2018-12-26T19:16:29.655Z,24.75
2018-12-26T19:19:20.067Z,23.60
2018-12-26T19:22:03.108Z,24.67
2018-12-26T19:24:52.860Z,26.95
2018-12-26T19:27:36.288Z,27.70
2018-12-26T19:30:26.361Z,29.48
2018-12-26T19:33:09.165Z,29.15
2018-12-26T19:39:26.406Z,29.77
2018-12-26T19:42:16.467Z,28.92
2018-12-26T19:45:00.872Z,31.75
2018-12-26T19:47:51.298Z,29.92
2018-12-26T19:50:35.672Z,31.45
2018-12-26T19:53:25.453Z,30.82
2018-12-26T19:56:07.845Z,31.97
2018-12-26T19:58:57.630Z,31.57
2018-12-26T20:01:48.122Z,29.37
2018-12-26T20:04:32.322Z,32.42
2018-12-26T20:07:15.051Z,34.08
2018-12-26T20:10:25.861Z,29.30
2018-12-26T20:13:06.533Z,31.42
2018-12-26T20:15:56.619Z,30.08
2018-12-26T20:18:39.209Z,48.58
2018-12-26T20:24:55.901Z,33.15
2018-12-26T20:27:46.058Z,33.60
2018-12-26T20:30:35.879Z,31.42
2018-12-26T20:33:18.774Z,31.00
2018-12-26T20:36:08.566Z,29.85
2018-12-26T20:38:50.842Z,30.60
2018-12-26T20:41:40.979Z,29.40
2018-12-26T20:44:25.460Z,30.77
2018-12-26T20:47:15.269Z,29.50
2018-12-26T20:49:59.853Z,32.13
2018-12-26T20:52:49.943Z,31.75
2018-12-26T20:55:32.978Z,30.57
2018-12-26T20:58:22.778Z,31.65
2018-12-26T21:01:03.450Z,33.53
2018-12-26T21:03:46.282Z,30.17
2018-12-26T21:06:36.062Z,31.25
2018-12-26T21:09:20.784Z,29.90
2018-12-26T21:12:10.568Z,34.18
2018-12-26T21:14:54.047Z,32.00
2018-12-26T21:17:44.087Z,30.97
2018-12-26T21:20:26.913Z,32.70
2018-12-26T21:23:16.676Z,32.70
2018-12-26T21:25:59.542Z,34.63
2018-12-26T21:28:42.294Z,33.50
2018-12-26T21:31:34.065Z,30.90
2018-12-26T21:34:36.232Z,33.38
2018-12-26T21:40:34.078Z,31.97
2018-12-26T21:43:24.070Z,32.45
2018-12-26T21:46:07.071Z,34.33
2018-12-26T21:48:56.966Z,33.48
2018-12-26T21:51:39.999Z,32.67
2018-12-26T21:54:29.789Z,33.88
2018-12-26T21:57:31.552Z,31.27
2018-12-26T22:00:21.635Z,36.55
2018-12-26T22:03:04.850Z,34.35
2018-12-26T22:05:55.233Z,34.23
2018-12-26T22:08:40.265Z,34.78
2018-12-26T22:11:30.061Z,31.93
2018-12-26T22:14:13.179Z,34.15
2018-12-26T22:17:03.238Z,32.25
2018-12-26T22:19:46.172Z,36.00
2018-12-26T22:22:55.092Z,31.87
2018-12-26T22:25:39.559Z,33.25
2018-12-26T22:28:22.247Z,34.13
2018-12-26T22:31:13.846Z,34.25
2018-12-26T22:33:56.797Z,30.43
2018-12-26T22:36:46.893Z,30.25
2018-12-26T22:39:29.553Z,31.55
2018-12-26T22:42:19.312Z,32.20
2018-12-26T22:45:01.754Z,32.88
2018-12-26T22:47:51.920Z,32.95
2018-12-26T22:50:35.875Z,33.50
2018-12-26T22:53:25.631Z,30.45
2018-12-26T22:56:10.355Z,28.77
2018-12-26T22:59:00.454Z,29.67
2018-12-26T23:01:43.580Z,28.45
2018-12-26T23:04:33.421Z,29.35
2018-12-26T23:07:18.420Z,27.60
2018-12-26T23:10:08.206Z,27.48
2018-12-26T23:12:51.294Z,26.77
2018-12-26T23:18:42.809Z,24.92
2018-12-26T23:21:32.661Z,26.37
2018-12-26T23:24:15.997Z,26.00
2018-12-26T23:26:58.571Z,26.33
2018-12-26T23:29:48.646Z,26.07
2018-12-26T23:32:31.854Z,25.48
2018-12-26T23:35:21.645Z,25.05
2018-12-26T23:38:04.159Z,24.30
2018-12-26T23:40:54.219Z,25.00
2018-12-26T23:43:38.422Z,26.23
2018-12-26T23:46:28.482Z,23.45
2018-12-26T23:49:09.420Z,24.12
2018-12-26T23:51:52.882Z,23.35
2018-12-26T23:54:42.973Z,22.55
2018-12-26T23:57:25.324Z,26.10
